Terminal Aerodrome Forecast
Issued by NWS

Home | Current Version | Previous Version | Text Only | Print | Product List | Glossary On
Versions: 1 2 3 4 5 6 7 8 9 10 11 12 13 14
858
FTUS45 KABQ 111350 AAA
TAFSAF
TAF AMD
KSAF 111350Z 1114/1212 35012KT P6SM SKC
     FM112000 32008KT P6SM FEW250
     FM120300 06006KT P6SM FEW250
     FM121100 02011KT P6SM SKC=

USA.gov is the U.S. government's official web portal to all federal, state and local government web resources and services.